Terminal Aerodrome Forecast
Issued by NWS

Home | Current Version | Previous Version | Graphics & Text | Print | Product List | Glossary On
Versions: 1 2 3 4 5 6 7 8 9 10 11 12 13 14
006
FTUS43 KBIS 181120
TAFMOT
TAF
KMOT 181120Z 1812/1912 24006KT P6SM SCT150
     FM181800 31008KT P6SM FEW080 FEW250
     FM190100 30004KT P6SM FEW130 FEW250
     FM190400 16004KT P6SM SKC=

USA.gov is the U.S. government's official web portal to all federal, state and local government web resources and services.